createdAt,value
2017-08-10T00:00:01.075Z,18.96
2017-08-10T00:01:08.063Z,18.95
2017-08-10T00:02:15.027Z,18.87
2017-08-10T00:03:22.031Z,18.90
2017-08-10T00:04:28.995Z,18.84
2017-08-10T00:05:35.867Z,18.83
2017-08-10T00:06:42.892Z,18.87
2017-08-10T00:07:49.388Z,18.85
2017-08-10T00:08:56.084Z,18.83
2017-08-10T00:10:02.737Z,18.83
2017-08-10T00:11:09.883Z,18.80
2017-08-10T00:12:17.091Z,18.80
2017-08-10T00:13:24.135Z,18.79
2017-08-10T00:14:31.343Z,18.78
2017-08-10T00:15:38.018Z,18.75
2017-08-10T00:16:45.126Z,18.73
2017-08-10T00:17:52.299Z,18.71
2017-08-10T00:18:59.071Z,18.70
2017-08-10T00:20:06.104Z,18.67
2017-08-10T00:21:12.915Z,18.67
2017-08-10T00:22:19.660Z,18.65
2017-08-10T00:23:26.403Z,18.64
2017-08-10T00:24:33.127Z,18.63
2017-08-10T00:25:39.930Z,18.61
2017-08-10T00:26:46.647Z,18.62
2017-08-10T00:27:53.551Z,18.55
2017-08-10T00:29:00.513Z,18.59
2017-08-10T00:30:07.444Z,18.59
2017-08-10T00:31:14.284Z,18.52
2017-08-10T00:32:21.357Z,18.56
2017-08-10T00:33:28.383Z,18.56
2017-08-10T00:34:35.455Z,18.55
2017-08-10T00:35:42.431Z,18.55
2017-08-10T00:36:49.011Z,18.54
2017-08-10T00:37:56.445Z,18.54
2017-08-10T00:39:03.428Z,18.53
2017-08-10T00:40:09.744Z,18.54
2017-08-10T00:41:16.667Z,18.51
2017-08-10T00:42:23.693Z,18.44
2017-08-10T00:43:30.496Z,18.50
2017-08-10T00:44:37.528Z,18.50
2017-08-10T00:45:44.463Z,18.43
2017-08-10T00:46:51.568Z,18.49
2017-08-10T00:47:58.733Z,18.48
2017-08-10T00:49:05.551Z,18.47
2017-08-10T00:50:12.563Z,18.46
2017-08-10T00:51:19.472Z,18.40
2017-08-10T00:52:26.372Z,18.39
2017-08-10T00:53:33.531Z,18.44
2017-08-10T00:54:40.099Z,18.43
2017-08-10T00:55:48.726Z,18.42
2017-08-10T00:56:54.212Z,18.42
2017-08-10T00:58:01.472Z,18.35
2017-08-10T00:59:07.640Z,18.41
2017-08-10T01:00:14.432Z,18.40
2017-08-10T01:01:21.312Z,18.33
2017-08-10T01:02:28.113Z,18.38
2017-08-10T01:03:34.872Z,18.37
2017-08-10T01:04:41.945Z,18.31
2017-08-10T01:05:48.756Z,18.35
2017-08-10T01:06:55.705Z,18.34
2017-08-10T01:08:02.277Z,18.33
2017-08-10T01:09:09.023Z,18.32
2017-08-10T01:10:15.968Z,18.31
2017-08-10T01:11:22.776Z,18.31
2017-08-10T01:12:29.594Z,18.28
2017-08-10T01:13:36.384Z,18.22
2017-08-10T01:14:43.244Z,18.27
2017-08-10T01:15:50.080Z,18.28
2017-08-10T01:16:56.931Z,18.22
2017-08-10T01:18:03.903Z,18.26
2017-08-10T01:19:10.727Z,18.28
2017-08-10T01:20:18.124Z,18.20
2017-08-10T01:21:24.619Z,18.16
2017-08-10T01:22:32.283Z,18.18
2017-08-10T01:23:38.333Z,18.14
2017-08-10T01:24:45.240Z,18.10
2017-08-10T01:25:52.017Z,18.06
2017-08-10T01:26:58.929Z,18.02
2017-08-10T01:28:06.310Z,17.94
2017-08-10T01:29:12.856Z,17.91
2017-08-10T01:30:19.837Z,17.95
2017-08-10T01:31:26.795Z,17.86
2017-08-10T01:32:33.647Z,17.89
2017-08-10T01:33:40.486Z,17.88
2017-08-10T01:34:47.463Z,17.85
2017-08-10T01:35:54.463Z,17.79
2017-08-10T01:37:01.576Z,17.82
2017-08-10T01:38:08.593Z,17.75
2017-08-10T01:39:15.451Z,17.78
2017-08-10T01:40:22.265Z,17.71
2017-08-10T01:41:29.136Z,17.76
2017-08-10T01:42:36.044Z,17.68
2017-08-10T01:43:42.909Z,17.67
2017-08-10T01:44:49.729Z,17.72
2017-08-10T01:45:56.763Z,17.72
2017-08-10T01:47:04.021Z,17.63
2017-08-10T01:48:10.434Z,17.69
2017-08-10T01:49:17.472Z,17.62
2017-08-10T01:50:24.392Z,17.61
2017-08-10T01:51:31.355Z,17.60
2017-08-10T01:52:38.616Z,17.65
2017-08-10T01:53:45.043Z,17.58
2017-08-10T01:54:52.192Z,17.57
2017-08-10T01:55:59.131Z,17.57
2017-08-10T01:57:06.153Z,17.56
2017-08-10T01:58:13.112Z,17.55
2017-08-10T01:59:20.167Z,17.55
2017-08-10T02:00:27.222Z,17.53
2017-08-10T02:01:34.120Z,17.52
2017-08-10T02:02:41.009Z,17.51
2017-08-10T02:03:47.925Z,17.51
2017-08-10T02:04:54.676Z,17.51
2017-08-10T02:06:01.428Z,17.50
2017-08-10T02:07:08.228Z,17.50
2017-08-10T02:08:15.133Z,17.54
2017-08-10T02:09:21.924Z,17.49
2017-08-10T02:10:28.845Z,17.47
2017-08-10T02:11:35.730Z,17.52
2017-08-10T02:12:42.544Z,17.47
2017-08-10T02:13:49.377Z,17.45
2017-08-10T02:14:56.232Z,17.46
2017-08-10T02:16:03.024Z,17.51
2017-08-10T02:17:09.762Z,17.50
2017-08-10T02:18:16.656Z,17.48
2017-08-10T02:19:23.515Z,17.43
2017-08-10T02:20:30.565Z,17.41
2017-08-10T02:21:37.221Z,17.47
2017-08-10T02:22:44.238Z,17.40
2017-08-10T02:23:51.078Z,17.40
2017-08-10T02:24:57.940Z,17.39
2017-08-10T02:26:04.642Z,17.38
2017-08-10T02:27:11.520Z,17.38
2017-08-10T02:28:18.474Z,17.42
2017-08-10T02:29:25.467Z,17.43
2017-08-10T02:30:32.317Z,17.37
2017-08-10T02:31:39.353Z,17.42
2017-08-10T02:32:46.221Z,17.36
2017-08-10T02:33:53.112Z,17.35
2017-08-10T02:35:00.263Z,17.34
2017-08-10T02:36:07.293Z,17.40
2017-08-10T02:37:14.257Z,17.40
2017-08-10T02:38:21.219Z,17.33
2017-08-10T02:39:28.168Z,17.32
2017-08-10T02:40:35.064Z,17.38
2017-08-10T02:41:42.240Z,17.33
2017-08-10T02:42:49.305Z,17.31
2017-08-10T02:43:56.116Z,17.36
2017-08-10T02:45:03.070Z,17.31
2017-08-10T02:46:10.004Z,17.35
2017-08-10T02:47:17.040Z,17.36
2017-08-10T02:48:23.919Z,17.29
2017-08-10T02:49:30.839Z,17.35
2017-08-10T02:50:37.733Z,17.34
2017-08-10T02:51:44.488Z,17.28
2017-08-10T02:52:51.276Z,17.28
2017-08-10T02:53:58.061Z,17.34
2017-08-10T02:55:04.712Z,17.32
2017-08-10T02:56:11.826Z,17.26
2017-08-10T02:57:18.951Z,17.26
2017-08-10T02:58:27.079Z,17.27
2017-08-10T02:59:33.223Z,17.25
2017-08-10T03:00:40.436Z,17.25
2017-08-10T03:01:48.252Z,17.24
2017-08-10T03:02:53.954Z,17.24
2017-08-10T03:04:00.839Z,17.30
2017-08-10T03:05:08.300Z,17.23
2017-08-10T03:06:14.368Z,17.23
2017-08-10T03:07:21.426Z,17.23
2017-08-10T03:08:28.575Z,17.29
2017-08-10T03:09:36.606Z,17.28
2017-08-10T03:10:42.695Z,17.22
2017-08-10T03:11:49.783Z,17.27
2017-08-10T03:12:56.922Z,17.22
2017-08-10T03:14:04.003Z,17.21
2017-08-10T03:15:11.087Z,17.21
2017-08-10T03:16:19.168Z,17.26
2017-08-10T03:17:25.289Z,17.25
2017-08-10T03:18:32.396Z,17.19
2017-08-10T03:19:42.423Z,17.19
2017-08-10T03:20:48.522Z,17.19
2017-08-10T03:21:54.548Z,17.18
2017-08-10T03:23:00.671Z,17.17
2017-08-10T03:24:07.759Z,17.18
2017-08-10T03:25:14.855Z,17.18
2017-08-10T03:26:21.988Z,17.17
2017-08-10T03:27:29.143Z,17.23
2017-08-10T03:28:36.317Z,17.18
2017-08-10T03:29:42.943Z,17.17
2017-08-10T03:30:50.039Z,17.17
2017-08-10T03:31:57.125Z,17.22
2017-08-10T03:33:04.215Z,17.16
2017-08-10T03:34:11.326Z,17.17
2017-08-10T03:35:18.432Z,17.20
2017-08-10T03:36:25.526Z,17.15
2017-08-10T03:37:32.634Z,17.15
2017-08-10T03:38:40.554Z,17.15
2017-08-10T03:39:46.654Z,17.15
2017-08-10T03:40:53.727Z,17.15
2017-08-10T03:42:00.836Z,17.15
2017-08-10T03:43:08.067Z,17.15
2017-08-10T03:44:16.516Z,17.14
2017-08-10T03:45:21.645Z,17.15
2017-08-10T03:46:28.766Z,17.19
2017-08-10T03:47:36.655Z,17.13
2017-08-10T03:48:43.542Z,17.18
2017-08-10T03:49:49.683Z,17.13
2017-08-10T03:50:57.575Z,17.19
2017-08-10T03:52:03.659Z,17.12
2017-08-10T03:53:11.839Z,17.12
2017-08-10T03:54:17.464Z,17.17
2017-08-10T03:55:24.605Z,17.18
2017-08-10T03:56:31.707Z,17.12
2017-08-10T03:57:40.672Z,17.12
2017-08-10T03:58:45.829Z,17.11
2017-08-10T03:59:52.918Z,17.10
2017-08-10T04:01:00.039Z,17.15
2017-08-10T04:02:07.123Z,17.09
2017-08-10T04:03:14.244Z,17.09
2017-08-10T04:04:21.314Z,17.08
2017-08-10T04:05:30.256Z,17.13
2017-08-10T04:06:36.344Z,17.07
2017-08-10T04:07:42.555Z,17.11
2017-08-10T04:08:50.126Z,17.04
2017-08-10T04:09:57.299Z,17.09
2017-08-10T04:11:03.034Z,17.07
2017-08-10T04:12:10.174Z,17.06
2017-08-10T04:13:17.340Z,17.04
2017-08-10T04:14:24.003Z,17.03
2017-08-10T04:15:31.157Z,16.96
2017-08-10T04:16:37.867Z,16.95
2017-08-10T04:17:44.588Z,17.00
2017-08-10T04:18:51.215Z,16.99
2017-08-10T04:19:57.915Z,16.98
2017-08-10T04:21:05.034Z,16.91
2017-08-10T04:22:12.195Z,16.90
2017-08-10T04:23:18.867Z,16.95
2017-08-10T04:24:25.500Z,16.88
2017-08-10T04:25:33.298Z,16.87
2017-08-10T04:26:40.345Z,16.87
2017-08-10T04:27:47.393Z,16.86
2017-08-10T04:28:53.636Z,16.91
2017-08-10T04:30:01.085Z,16.91
2017-08-10T04:31:07.251Z,16.84
2017-08-10T04:32:14.369Z,16.91
2017-08-10T04:33:22.328Z,16.89
2017-08-10T04:34:28.431Z,16.83
2017-08-10T04:35:35.539Z,16.82
2017-08-10T04:36:42.659Z,16.83
2017-08-10T04:37:51.708Z,16.88
2017-08-10T04:38:57.846Z,16.88
2017-08-10T04:40:03.980Z,16.82
2017-08-10T04:41:11.096Z,16.86
2017-08-10T04:42:18.454Z,16.86
2017-08-10T04:43:25.951Z,16.81
2017-08-10T04:44:32.119Z,16.86
2017-08-10T04:45:38.786Z,16.86
2017-08-10T04:46:45.920Z,16.87
2017-08-10T04:47:55.889Z,16.86
2017-08-10T04:49:00.944Z,16.87
2017-08-10T04:50:07.835Z,16.87
2017-08-10T04:51:14.907Z,16.87
2017-08-10T04:52:21.056Z,16.80
2017-08-10T04:53:31.087Z,16.86
2017-08-10T04:54:35.230Z,16.86
2017-08-10T04:55:43.159Z,16.86
2017-08-10T04:56:51.259Z,16.88
2017-08-10T04:57:57.391Z,16.87
2017-08-10T04:59:03.471Z,16.82
2017-08-10T05:00:11.486Z,16.81
2017-08-10T05:01:19.548Z,16.88
2017-08-10T05:02:25.435Z,16.89
2017-08-10T05:03:35.575Z,16.87
2017-08-10T05:04:38.686Z,16.82
2017-08-10T05:05:45.767Z,16.84
2017-08-10T05:06:52.954Z,16.89
2017-08-10T05:07:59.572Z,16.91
2017-08-10T05:09:07.608Z,16.85
2017-08-10T05:10:13.727Z,16.91
2017-08-10T05:11:22.675Z,16.92
2017-08-10T05:12:27.799Z,16.86
2017-08-10T05:13:35.920Z,16.93
2017-08-10T05:14:42.841Z,16.88
2017-08-10T05:15:50.795Z,16.93
2017-08-10T05:16:56.035Z,16.88
2017-08-10T05:18:02.628Z,16.90
2017-08-10T05:19:09.747Z,16.95
2017-08-10T05:20:17.800Z,16.97
2017-08-10T05:21:23.915Z,16.93
2017-08-10T05:22:31.026Z,16.97
2017-08-10T05:23:38.103Z,16.98
2017-08-10T05:24:46.015Z,16.93
2017-08-10T05:25:53.039Z,17.00
2017-08-10T05:27:00.058Z,16.95
2017-08-10T05:28:06.266Z,16.95
2017-08-10T05:29:12.868Z,17.01
2017-08-10T05:30:20.018Z,17.02
2017-08-10T05:31:27.880Z,16.96
2017-08-10T05:32:33.976Z,17.04
2017-08-10T05:33:42.008Z,17.04
2017-08-10T05:34:48.949Z,16.98
2017-08-10T05:35:55.078Z,17.04
2017-08-10T05:37:02.209Z,17.03
2017-08-10T05:38:09.313Z,17.00
2017-08-10T05:39:22.471Z,16.98
2017-08-10T05:40:23.174Z,16.99
2017-08-10T05:41:29.823Z,16.99
2017-08-10T05:42:36.915Z,16.99
2017-08-10T05:43:43.899Z,17.00
2017-08-10T05:44:51.035Z,17.01
2017-08-10T05:45:59.182Z,17.06
2017-08-10T05:47:06.215Z,17.06
2017-08-10T05:48:13.235Z,17.01
2017-08-10T05:49:19.429Z,17.00
2017-08-10T05:50:27.912Z,17.05
2017-08-10T05:51:33.851Z,17.00
2017-08-10T05:52:39.964Z,17.06
2017-08-10T05:53:46.719Z,17.01
2017-08-10T05:54:53.913Z,17.01
2017-08-10T05:56:00.639Z,17.08
2017-08-10T05:57:07.360Z,17.07
2017-08-10T05:58:14.051Z,17.08
2017-08-10T05:59:21.198Z,17.03
2017-08-10T06:00:28.956Z,17.04
2017-08-10T06:01:34.739Z,17.04
2017-08-10T06:02:41.520Z,17.10
2017-08-10T06:03:48.388Z,17.04
2017-08-10T06:04:56.252Z,17.05
2017-08-10T06:06:02.075Z,17.05
2017-08-10T06:07:08.759Z,17.05
2017-08-10T06:08:15.884Z,17.11
2017-08-10T06:09:22.741Z,17.10
2017-08-10T06:10:31.443Z,17.11
2017-08-10T06:11:36.415Z,17.11
2017-08-10T06:12:44.211Z,17.06
2017-08-10T06:13:50.110Z,17.08
2017-08-10T06:14:56.895Z,17.08
2017-08-10T06:16:03.711Z,17.07
2017-08-10T06:17:10.616Z,17.14
2017-08-10T06:18:17.393Z,17.15
2017-08-10T06:19:24.197Z,17.10
2017-08-10T06:20:30.964Z,17.10
2017-08-10T06:21:37.680Z,17.16
2017-08-10T06:22:44.579Z,17.18
2017-08-10T06:23:52.408Z,17.20
2017-08-10T06:24:58.599Z,17.20
2017-08-10T06:26:05.490Z,17.20
2017-08-10T06:27:12.395Z,17.15
2017-08-10T06:28:19.194Z,17.16
2017-08-10T06:29:26.193Z,17.21
2017-08-10T06:30:32.915Z,17.16
2017-08-10T06:31:39.932Z,17.17
2017-08-10T06:32:46.951Z,17.17
2017-08-10T06:33:53.719Z,17.23
2017-08-10T06:35:01.478Z,17.18
2017-08-10T06:36:07.450Z,17.23
2017-08-10T06:37:14.267Z,17.18
2017-08-10T06:38:22.020Z,17.18
2017-08-10T06:39:27.824Z,17.18
2017-08-10T06:40:34.569Z,17.23
2017-08-10T06:41:41.788Z,17.19
2017-08-10T06:42:48.172Z,17.18
2017-08-10T06:43:54.943Z,17.19
2017-08-10T06:45:01.767Z,17.19
2017-08-10T06:46:08.733Z,17.24
2017-08-10T06:47:15.556Z,17.24
2017-08-10T06:48:22.352Z,17.19
2017-08-10T06:49:29.147Z,17.19
2017-08-10T06:50:36.127Z,17.25
2017-08-10T06:51:43.661Z,17.19
2017-08-10T06:52:50.067Z,17.18
2017-08-10T06:53:57.799Z,17.19
2017-08-10T06:55:04.031Z,17.18
2017-08-10T06:56:10.517Z,17.19
2017-08-10T06:57:17.357Z,17.22
2017-08-10T06:58:24.259Z,17.16
2017-08-10T06:59:31.084Z,17.15
2017-08-10T07:00:38.016Z,17.14
2017-08-10T07:01:44.770Z,17.14
2017-08-10T07:02:51.539Z,17.19
2017-08-10T07:03:58.287Z,17.12
2017-08-10T07:05:05.221Z,17.11
2017-08-10T07:06:11.873Z,17.19
2017-08-10T07:07:18.827Z,17.27
2017-08-10T07:08:25.604Z,17.46
2017-08-10T07:09:32.779Z,17.59
2017-08-10T07:10:39.524Z,17.65
2017-08-10T07:11:46.175Z,17.71
2017-08-10T07:12:53.964Z,17.80
2017-08-10T07:13:59.805Z,17.86
2017-08-10T07:15:06.507Z,17.91
2017-08-10T07:16:13.608Z,17.95
2017-08-10T07:17:20.298Z,18.00
2017-08-10T07:18:27.006Z,18.04
2017-08-10T07:19:33.804Z,18.06
2017-08-10T07:20:41.334Z,18.15
2017-08-10T07:21:47.531Z,18.17
2017-08-10T07:22:54.400Z,18.14
2017-08-10T07:24:01.271Z,18.21
2017-08-10T07:25:08.067Z,18.18
2017-08-10T07:26:14.800Z,18.25
2017-08-10T07:27:21.620Z,18.28
2017-08-10T07:28:28.372Z,18.31
2017-08-10T07:29:35.133Z,18.33
2017-08-10T07:30:41.799Z,18.34
2017-08-10T07:31:48.673Z,18.35
2017-08-10T07:32:55.371Z,18.37
2017-08-10T07:34:02.185Z,18.34
2017-08-10T07:35:08.927Z,18.40
2017-08-10T07:36:15.576Z,18.42
2017-08-10T07:37:23.555Z,18.43
2017-08-10T07:38:29.832Z,18.44
2017-08-10T07:39:36.703Z,18.42
2017-08-10T07:40:43.468Z,18.43
2017-08-10T07:41:50.192Z,18.42
2017-08-10T07:42:56.939Z,18.44
2017-08-10T07:44:03.567Z,18.44
2017-08-10T07:45:10.279Z,18.40
2017-08-10T07:46:17.018Z,18.45
2017-08-10T07:47:26.645Z,18.46
2017-08-10T07:48:30.880Z,18.46
2017-08-10T07:49:37.610Z,18.48
2017-08-10T07:50:44.460Z,18.44
2017-08-10T07:51:51.203Z,18.44
2017-08-10T07:52:57.887Z,18.51
2017-08-10T07:54:05.084Z,18.51
2017-08-10T07:55:11.751Z,18.51
2017-08-10T07:56:18.920Z,18.51
2017-08-10T07:57:25.667Z,18.52
2017-08-10T07:58:32.535Z,18.48
2017-08-10T07:59:39.443Z,18.53
2017-08-10T08:00:47.136Z,18.54
2017-08-10T08:01:53.127Z,18.54
2017-08-10T08:03:00.461Z,18.49
2017-08-10T08:04:06.899Z,18.56
2017-08-10T08:05:13.731Z,18.50
2017-08-10T08:06:21.319Z,18.56
2017-08-10T08:07:28.291Z,18.51
2017-08-10T08:08:34.516Z,18.57
2017-08-10T08:09:41.331Z,18.57
2017-08-10T08:10:47.960Z,18.53
2017-08-10T08:11:55.257Z,18.58
2017-08-10T08:13:02.011Z,18.58
2017-08-10T08:14:08.715Z,18.60
2017-08-10T08:15:15.377Z,18.59
2017-08-10T08:16:22.512Z,18.55
2017-08-10T08:17:29.266Z,18.56
2017-08-10T08:18:36.487Z,18.62
2017-08-10T08:19:43.064Z,18.56
2017-08-10T08:20:49.882Z,18.61
2017-08-10T08:21:56.659Z,18.60
2017-08-10T08:23:03.655Z,18.60
2017-08-10T08:24:10.467Z,18.61
2017-08-10T08:25:17.534Z,18.60
2017-08-10T08:26:24.060Z,18.59
2017-08-10T08:27:31.312Z,18.60
2017-08-10T08:28:38.186Z,18.59
2017-08-10T08:29:44.947Z,18.53
2017-08-10T08:30:51.904Z,18.58
2017-08-10T08:31:58.469Z,18.57
2017-08-10T08:33:05.715Z,18.58
2017-08-10T08:34:12.263Z,18.58
2017-08-10T08:35:19.272Z,18.58
2017-08-10T08:36:26.161Z,18.60
2017-08-10T08:37:33.016Z,18.55
2017-08-10T08:38:39.711Z,18.63
2017-08-10T08:39:47.342Z,18.63
2017-08-10T08:40:53.387Z,18.57
2017-08-10T08:42:00.436Z,18.63
2017-08-10T08:43:07.239Z,18.63
2017-08-10T08:44:14.830Z,18.65
2017-08-10T08:45:21.285Z,18.64
2017-08-10T08:46:27.903Z,18.66
2017-08-10T08:47:34.620Z,18.65
2017-08-10T08:48:41.535Z,18.61
2017-08-10T08:49:48.501Z,18.65
2017-08-10T08:50:55.467Z,18.66
2017-08-10T08:52:02.311Z,18.59
2017-08-10T08:53:09.224Z,18.65
2017-08-10T08:54:16.196Z,18.62
2017-08-10T08:55:23.325Z,18.62
2017-08-10T08:56:30.087Z,18.61
2017-08-10T08:57:37.402Z,18.63
2017-08-10T08:58:44.484Z,18.61
2017-08-10T08:59:51.040Z,18.61
2017-08-10T09:00:58.178Z,18.61
2017-08-10T09:02:05.641Z,18.55
2017-08-10T09:03:11.976Z,18.60
2017-08-10T09:04:19.160Z,18.61
2017-08-10T09:05:25.216Z,18.61
2017-08-10T09:06:31.947Z,18.61
2017-08-10T09:07:38.759Z,18.59
2017-08-10T09:08:45.886Z,18.60
2017-08-10T09:09:52.608Z,18.59
2017-08-10T09:10:59.411Z,18.53
2017-08-10T09:12:06.156Z,18.53
2017-08-10T09:13:12.943Z,18.58
2017-08-10T09:14:19.865Z,18.52
2017-08-10T09:15:26.863Z,18.52
2017-08-10T09:16:34.100Z,18.56
2017-08-10T09:17:41.027Z,18.57
2017-08-10T09:18:47.837Z,18.55
2017-08-10T09:19:54.581Z,18.48
2017-08-10T09:21:01.280Z,18.53
2017-08-10T09:22:07.944Z,18.53
2017-08-10T09:23:14.757Z,18.53
2017-08-10T09:24:21.568Z,18.46
2017-08-10T09:25:28.324Z,18.52
2017-08-10T09:26:35.131Z,18.45
2017-08-10T09:27:41.935Z,18.51
2017-08-10T09:28:48.668Z,18.49
2017-08-10T09:29:55.317Z,18.44
2017-08-10T09:31:02.019Z,18.49
2017-08-10T09:32:09.271Z,18.42
2017-08-10T09:33:16.063Z,18.46
2017-08-10T09:34:23.095Z,18.46
2017-08-10T09:35:29.899Z,18.46
2017-08-10T09:36:37.032Z,18.41
2017-08-10T09:37:43.732Z,18.46
2017-08-10T09:38:50.497Z,18.46
2017-08-10T09:39:57.253Z,18.48
2017-08-10T09:41:03.991Z,18.48
2017-08-10T09:42:11.243Z,18.45
2017-08-10T09:43:18.284Z,18.54
2017-08-10T09:44:25.897Z,18.55
2017-08-10T09:45:31.593Z,18.55
2017-08-10T09:46:38.620Z,18.55
2017-08-10T09:47:45.502Z,18.56
2017-08-10T09:48:52.168Z,18.50
2017-08-10T09:49:59.359Z,18.57
2017-08-10T09:51:06.046Z,18.58
2017-08-10T09:52:13.361Z,18.58
2017-08-10T09:53:20.177Z,18.57
2017-08-10T09:54:26.903Z,18.57
2017-08-10T09:55:33.598Z,18.57
2017-08-10T09:56:40.699Z,18.57
2017-08-10T09:57:47.884Z,18.56
2017-08-10T09:58:55.003Z,18.57
2017-08-10T10:00:02.111Z,18.51
2017-08-10T10:01:09.262Z,18.54
2017-08-10T10:02:15.955Z,18.53
2017-08-10T10:03:22.672Z,18.46
2017-08-10T10:04:29.940Z,18.50
2017-08-10T10:05:36.651Z,18.50
2017-08-10T10:06:43.355Z,18.50
2017-08-10T10:07:50.034Z,18.51
2017-08-10T10:08:56.798Z,18.50
2017-08-10T10:10:03.476Z,18.45
2017-08-10T10:11:10.635Z,18.44
2017-08-10T10:12:17.259Z,18.50
2017-08-10T10:13:24.435Z,18.52
2017-08-10T10:14:31.036Z,18.48
2017-08-10T10:15:38.207Z,18.52
2017-08-10T10:16:45.346Z,18.53
2017-08-10T10:17:52.488Z,18.53
2017-08-10T10:18:59.586Z,18.50
2017-08-10T10:20:06.678Z,18.55
2017-08-10T10:21:13.726Z,18.49
2017-08-10T10:22:20.803Z,18.54
2017-08-10T10:23:27.891Z,18.53
2017-08-10T10:24:34.987Z,18.53
2017-08-10T10:25:42.074Z,18.53
2017-08-10T10:26:49.144Z,18.51
2017-08-10T10:27:56.307Z,18.45
2017-08-10T10:29:03.400Z,18.51
2017-08-10T10:30:10.619Z,18.50
2017-08-10T10:31:17.188Z,18.50
2017-08-10T10:32:24.263Z,18.44
2017-08-10T10:33:31.334Z,18.50
2017-08-10T10:34:38.403Z,18.50
2017-08-10T10:35:45.471Z,18.48
2017-08-10T10:36:52.539Z,18.43
2017-08-10T10:37:59.610Z,18.40
2017-08-10T10:39:06.720Z,18.37
2017-08-10T10:40:13.859Z,18.27
2017-08-10T10:41:20.983Z,18.31
2017-08-10T10:42:28.064Z,18.24
2017-08-10T10:43:35.153Z,18.23
2017-08-10T10:44:42.240Z,18.24
2017-08-10T10:45:49.410Z,18.23
2017-08-10T10:46:56.575Z,18.17
2017-08-10T10:48:04.028Z,18.14
2017-08-10T10:49:10.239Z,18.13
2017-08-10T10:50:16.939Z,18.10
2017-08-10T10:51:24.073Z,18.14
2017-08-10T10:52:31.219Z,18.13
2017-08-10T10:53:38.465Z,18.12
2017-08-10T10:54:45.260Z,18.11
2017-08-10T10:55:51.893Z,18.09
2017-08-10T10:56:59.103Z,18.07
2017-08-10T10:58:05.853Z,18.04
2017-08-10T10:59:12.611Z,17.95
2017-08-10T11:00:19.306Z,17.99
2017-08-10T11:01:25.938Z,17.96
2017-08-10T11:02:32.718Z,17.95
2017-08-10T11:03:39.363Z,17.87
2017-08-10T11:04:46.511Z,17.90
2017-08-10T11:05:54.187Z,17.89
2017-08-10T11:07:00.005Z,17.87
2017-08-10T11:08:07.526Z,17.87
2017-08-10T11:09:13.861Z,17.86
2017-08-10T11:10:20.603Z,17.84
2017-08-10T11:11:27.319Z,17.79
2017-08-10T11:12:34.056Z,17.83
2017-08-10T11:13:40.739Z,17.77
2017-08-10T11:14:47.883Z,17.80
2017-08-10T11:15:54.604Z,17.80
2017-08-10T11:17:01.367Z,17.74
2017-08-10T11:18:08.147Z,17.79
2017-08-10T11:19:14.853Z,17.78
2017-08-10T11:20:21.640Z,17.77
2017-08-10T11:21:28.369Z,17.69
2017-08-10T11:22:35.063Z,17.76
2017-08-10T11:23:42.153Z,17.67
2017-08-10T11:24:49.306Z,17.65
2017-08-10T11:25:56.398Z,17.70
2017-08-10T11:27:04.451Z,17.61
2017-08-10T11:28:10.588Z,17.60
2017-08-10T11:29:17.759Z,17.58
2017-08-10T11:30:24.363Z,17.63
2017-08-10T11:31:31.491Z,17.53
2017-08-10T11:32:38.594Z,17.51
2017-08-10T11:33:45.676Z,17.51
2017-08-10T11:34:53.547Z,17.49
2017-08-10T11:35:59.618Z,17.47
2017-08-10T11:37:08.728Z,17.44
2017-08-10T11:38:13.472Z,17.42
2017-08-10T11:39:21.079Z,17.40
2017-08-10T11:40:28.223Z,17.38
2017-08-10T11:41:35.159Z,17.42
2017-08-10T11:42:41.308Z,17.35
2017-08-10T11:43:48.040Z,17.33
2017-08-10T11:44:54.699Z,17.31
2017-08-10T11:46:01.876Z,17.31
2017-08-10T11:47:08.494Z,17.31
2017-08-10T11:48:15.618Z,17.31
2017-08-10T11:49:23.735Z,17.36
2017-08-10T11:50:30.411Z,17.28
2017-08-10T11:51:36.551Z,17.29
2017-08-10T11:52:44.502Z,17.29
2017-08-10T11:53:51.394Z,17.35
2017-08-10T11:54:58.454Z,17.28
2017-08-10T11:56:04.549Z,17.28
2017-08-10T11:57:11.778Z,17.28
2017-08-10T11:58:19.370Z,17.28
2017-08-10T11:59:25.494Z,17.31
2017-08-10T12:00:33.427Z,17.33
2017-08-10T12:01:39.622Z,17.31
2017-08-10T12:02:46.763Z,17.31
2017-08-10T12:03:53.497Z,17.26
2017-08-10T12:05:00.666Z,17.29
2017-08-10T12:06:07.811Z,17.23
2017-08-10T12:07:14.903Z,17.25
2017-08-10T12:08:22.979Z,17.29
2017-08-10T12:09:29.118Z,17.26
2017-08-10T12:10:37.340Z,17.20
2017-08-10T12:11:42.996Z,17.19
2017-08-10T12:12:50.139Z,17.18
2017-08-10T12:13:57.282Z,17.17
2017-08-10T12:15:04.455Z,17.14
2017-08-10T12:16:11.093Z,17.15
2017-08-10T12:17:18.502Z,17.16
2017-08-10T12:18:25.159Z,17.14
2017-08-10T12:19:31.808Z,17.15
2017-08-10T12:20:40.781Z,17.14
2017-08-10T12:21:46.807Z,17.19
2017-08-10T12:22:52.923Z,17.14
2017-08-10T12:23:59.835Z,17.13
2017-08-10T12:25:07.890Z,17.12
2017-08-10T12:26:14.034Z,17.13
2017-08-10T12:27:21.096Z,17.18
2017-08-10T12:28:28.975Z,17.18
2017-08-10T12:29:35.117Z,17.12
2017-08-10T12:30:41.767Z,17.12
2017-08-10T12:31:49.662Z,17.15
2017-08-10T12:32:55.792Z,17.14
2017-08-10T12:34:02.520Z,17.09
2017-08-10T12:35:09.167Z,17.08
2017-08-10T12:36:16.254Z,17.14
2017-08-10T12:37:24.144Z,17.08
2017-08-10T12:38:30.256Z,17.08
2017-08-10T12:39:37.399Z,17.13
2017-08-10T12:40:44.559Z,17.13
2017-08-10T12:41:51.631Z,17.13
2017-08-10T12:42:59.516Z,17.13
2017-08-10T12:44:05.618Z,17.15
2017-08-10T12:45:12.719Z,17.13
2017-08-10T12:46:20.726Z,17.07
2017-08-10T12:47:27.718Z,17.13
2017-08-10T12:48:33.819Z,17.06
2017-08-10T12:49:40.918Z,17.03
2017-08-10T12:50:48.819Z,17.03
2017-08-10T12:51:55.695Z,17.03
2017-08-10T12:53:02.565Z,17.08
2017-08-10T12:54:09.583Z,17.02
2017-08-10T12:55:15.672Z,17.09
2017-08-10T12:56:22.791Z,17.10
2017-08-10T12:57:30.669Z,17.07
2017-08-10T12:58:36.775Z,17.12
2017-08-10T12:59:44.859Z,17.10
2017-08-10T13:00:52.810Z,17.16
2017-08-10T13:01:58.011Z,17.16
2017-08-10T13:03:09.196Z,17.15
2017-08-10T13:04:15.407Z,17.14
2017-08-10T13:05:19.088Z,17.13
2017-08-10T13:06:26.257Z,17.08
2017-08-10T13:07:32.844Z,17.07
2017-08-10T13:08:39.768Z,17.06
2017-08-10T13:09:46.635Z,17.10
2017-08-10T13:10:58.789Z,17.08
2017-08-10T13:12:09.100Z,17.00
2017-08-10T13:13:16.427Z,16.98
2017-08-10T13:14:20.682Z,16.98
2017-08-10T13:15:25.666Z,17.00
2017-08-10T13:16:32.676Z,16.93
2017-08-10T13:17:41.317Z,16.93
2017-08-10T13:18:46.847Z,16.96
2017-08-10T13:19:53.844Z,16.96
2017-08-10T13:21:01.532Z,16.90
2017-08-10T13:22:08.624Z,16.94
2017-08-10T13:23:17.687Z,16.94
2017-08-10T13:24:22.643Z,16.93
2017-08-10T13:25:28.811Z,16.87
2017-08-10T13:26:37.904Z,16.92
2017-08-10T13:27:50.165Z,16.86
2017-08-10T13:28:51.813Z,16.87
2017-08-10T13:30:00.961Z,16.86
2017-08-10T13:33:41.377Z,16.88
2017-08-10T13:34:48.518Z,16.86
2017-08-10T13:35:56.571Z,16.86
2017-08-10T13:37:03.676Z,16.85
2017-08-10T13:38:11.699Z,16.78
2017-08-10T13:39:16.808Z,16.83
2017-08-10T13:40:23.906Z,16.77
2017-08-10T13:41:33.008Z,16.76
2017-08-10T13:42:40.148Z,16.74
2017-08-10T13:43:45.259Z,16.79
2017-08-10T13:44:52.367Z,16.78
2017-08-10T13:45:59.514Z,16.71
2017-08-10T13:47:08.569Z,16.71
2017-08-10T13:48:14.576Z,16.76
2017-08-10T13:49:21.592Z,16.76
2017-08-10T13:50:27.735Z,16.70
2017-08-10T13:51:34.847Z,16.76
2017-08-10T13:52:41.943Z,16.76
2017-08-10T13:53:48.975Z,16.75
2017-08-10T13:54:56.037Z,16.74
2017-08-10T13:56:08.143Z,16.74
2017-08-10T13:57:12.120Z,16.74
2017-08-10T13:58:17.275Z,16.68
2017-08-10T14:01:38.183Z,16.73
2017-08-10T14:02:48.830Z,16.69
2017-08-10T14:03:52.843Z,16.74
2017-08-10T14:04:59.870Z,16.68
2017-08-10T14:06:08.933Z,16.73
2017-08-10T14:07:13.197Z,16.73
2017-08-10T14:08:23.143Z,16.72
2017-08-10T14:09:29.231Z,16.67
2017-08-10T14:10:34.452Z,16.70
2017-08-10T14:11:41.012Z,16.70
2017-08-10T14:12:48.123Z,16.69
2017-08-10T14:13:55.267Z,16.62
2017-08-10T14:15:04.242Z,16.67
2017-08-10T14:16:09.282Z,16.65
2017-08-10T14:17:19.262Z,16.58
2017-08-10T14:18:24.413Z,16.62
2017-08-10T14:19:32.505Z,16.55
2017-08-10T14:20:37.707Z,16.59
2017-08-10T14:21:45.607Z,16.58
2017-08-10T14:22:56.531Z,16.58
2017-08-10T14:23:59.521Z,16.54
2017-08-10T14:25:06.538Z,16.49
2017-08-10T14:26:12.707Z,16.52